Time;durP1;ratioP1;P1;durP2;ratioP2;P2;SDS_P1;SDS_P2;PMS_P1;PMS_P2;Temp;Humidity;BMP_temperature;BMP_pressure;BME280_temperature;BME280_humidity;BME280_pressure;Samples;Min_cycle;Max_cycle;Signal;HPM_P1;HPM_P2
2022/02/27 00:01:42;;;;;;;;;;;;;;;2.63;69.61;103210.91;15428711;28;20153;-58
2022/02/27 00:09:16;;;;;;;1517.22;763.30;;;;;;;2.51;69.70;103212.66;15392945;28;19922;-58
2022/02/27 00:16:48;;;;;;;;;;;;;;;2.47;69.97;103211.38;15403081;28;20043;-59
2022/02/27 00:24:21;;;;;;;1999.90;999.90;;;;;;;2.33;69.90;103210.59;15374307;28;19930;-59
2022/02/27 00:31:54;;;;;;;1999.90;999.90;;;;;;;2.25;70.43;103206.16;15409067;28;20038;-60
2022/02/27 00:39:27;;;;;;;1538.25;784.42;;;;;;;2.28;70.79;103202.97;15384891;28;20077;-58
2022/02/27 00:47:00;;;;;;;126.78;114.97;;;;;;;2.13;71.17;103196.03;15385916;28;20098;-60
2022/02/27 00:54:33;;;;;;;162.27;148.07;;;;;;;2.17;71.64;103205.56;15372575;28;20047;-59
2022/02/27 01:02:05;;;;;;;;;;;;;;;2.27;71.42;103198.53;15384934;28;20049;-59
2022/02/27 01:09:39;;;;;;;1532.22;779.35;;;;;;;2.12;70.87;103199.88;15376596;28;19930;-60
2022/02/27 01:17:11;;;;;;;1539.60;785.83;;;;;;;2.03;71.28;103197.34;15366298;28;20043;-60
2022/02/27 01:24:44;;;;;;;1533.40;780.47;;;;;;;2.03;71.01;103185.47;15376551;28;20057;-59
2022/02/27 01:32:16;;;;;;;;;;;;;;;2.05;70.78;103193.50;15395014;28;20408;-60
2022/02/27 01:39:50;;;;;;;1999.90;999.90;;;;;;;1.84;71.07;103184.44;15392443;28;19954;-62
2022/02/27 01:47:22;;;;;;;1999.90;999.90;;;;;;;1.80;70.10;103188.69;15379088;28;20071;-60
2022/02/27 01:54:58;;;;;;;1999.90;999.90;;;;;;;1.67;70.52;103183.22;15392338;28;20039;-59
2022/02/27 02:02:31;;;;;;;1999.90;999.90;;;;;;;1.59;70.95;103197.19;15334920;28;20058;-59
2022/02/27 02:10:05;;;;;;;1999.90;999.90;;;;;;;1.62;70.67;103197.59;15376266;28;20399;-60
2022/02/27 02:17:38;;;;;;;1999.90;999.90;;;;;;;1.54;70.82;103205.22;15404338;28;20027;-60
2022/02/27 02:25:12;;;;;;;1999.90;999.90;;;;;;;1.47;71.14;103204.41;15370127;28;20134;-61
2022/02/27 02:32:50;;;;;;;1999.90;999.90;;;;;;;1.41;71.34;103206.09;15350725;28;20043;-60
2022/02/27 02:40:25;;;;;;;1999.90;999.90;;;;;;;1.43;69.84;103199.31;15394832;28;20067;-58
2022/02/27 02:48:00;;;;;;;1999.90;999.90;;;;;;;1.31;71.06;103197.41;15395173;28;20039;-58
2022/02/27 02:55:36;;;;;;;1999.90;999.90;;;;;;;1.29;70.41;103194.88;15392885;28;20039;-61
2022/02/27 03:03:08;;;;;;;1999.90;999.90;;;;;;;1.15;70.91;103217.94;15390022;28;20182;-60
2022/02/27 03:10:42;;;;;;;1999.90;999.90;;;;;;;1.12;71.21;103221.91;15393445;28;20043;-62
2022/02/27 03:18:15;;;;;;;1999.90;999.90;;;;;;;1.03;71.37;103219.56;15399124;28;20141;-60
2022/02/27 03:25:49;;;;;;;1999.90;999.90;;;;;;;1.08;70.98;103217.06;15396139;28;20098;-59
2022/02/27 03:33:22;;;;;;;1999.90;999.90;;;;;;;0.99;71.27;103219.16;15415482;28;20500;-60
2022/02/27 03:40:56;;;;;;;1999.90;999.90;;;;;;;0.97;70.89;103225.94;15394923;28;20567;-62
2022/02/27 03:48:29;;;;;;;1999.90;999.90;;;;;;;0.64;71.12;103225.84;15375441;28;20468;-61
2022/02/27 03:56:03;;;;;;;1999.90;999.90;;;;;;;0.78;71.07;103230.31;15413403;28;20424;-61
2022/02/27 04:03:35;;;;;;;1999.90;999.90;;;;;;;0.78;71.07;103225.66;15412508;28;20456;-60
2022/02/27 04:11:08;;;;;;;1999.90;999.90;;;;;;;0.84;71.36;103235.00;15392088;28;20062;-61
2022/02/27 04:18:41;;;;;;;1999.90;999.90;;;;;;;0.72;70.93;103239.38;15429530;28;20247;-61
2022/02/27 04:26:14;;;;;;;1999.90;999.90;;;;;;;0.76;70.15;103237.91;15408731;28;20042;-61
2022/02/27 04:33:46;;;;;;;1999.90;999.90;;;;;;;0.65;70.13;103244.84;15390286;28;20046;-60
2022/02/27 04:41:20;;;;;;;1999.90;999.90;;;;;;;0.62;70.88;103233.41;15361182;28;20054;-60
2022/02/27 04:48:52;;;;;;;1999.90;999.90;;;;;;;0.56;70.22;103219.44;15378962;28;20051;-61
2022/02/27 04:56:26;;;;;;;1999.90;999.90;;;;;;;0.45;71.15;103232.94;15364559;28;20461;-61
2022/02/27 05:03:58;;;;;;;;;;;;;;;0.62;70.35;103245.25;15406034;28;20051;-61
2022/02/27 05:11:31;;;;;;;1999.90;999.90;;;;;;;0.47;69.85;103239.91;15370055;28;20056;-60
2022/02/27 05:19:03;;;;;;;1999.90;999.90;;;;;;;0.44;70.57;103250.47;15372862;28;20329;-61
2022/02/27 05:26:37;;;;;;;1999.90;999.90;;;;;;;0.41;70.53;103253.59;15367919;29;20047;-60
2022/02/27 05:34:11;;;;;;;1999.90;999.90;;;;;;;0.39;70.73;103262.06;15351431;29;20071;-59
2022/02/27 05:41:44;;;;;;;1999.90;999.90;;;;;;;0.35;70.01;103269.03;15348848;29;20081;-60
2022/02/27 05:49:16;;;;;;;;;;;;;;;0.44;70.54;103281.53;15349755;28;20067;-60
2022/02/27 05:56:49;;;;;;;1999.90;999.90;;;;;;;0.25;71.00;103285.00;15349397;29;19929;-60
2022/02/27 06:04:22;;;;;;;1999.90;999.90;;;;;;;0.34;70.34;103283.81;15366150;29;20130;-60
2022/02/27 06:11:57;;;;;;;;;;;;;;;0.51;70.29;103287.06;15360224;28;20130;-60
2022/02/27 06:19:29;;;;;;;1999.90;999.90;;;;;;;0.48;70.23;103292.97;15378823;29;19985;-60
2022/02/27 06:27:05;;;;;;;1999.90;999.90;;;;;;;0.50;70.56;103288.09;15377348;29;20215;-62
2022/02/27 06:34:38;;;;;;;1999.90;999.90;;;;;;;0.59;70.91;103295.13;15346368;28;20562;-62
2022/02/27 06:42:11;;;;;;;1999.90;999.90;;;;;;;0.71;71.13;103310.00;15378228;28;20047;-61
2022/02/27 06:49:43;;;;;;;1999.90;999.90;;;;;;;0.97;71.52;103308.41;15377965;29;20130;-61
2022/02/27 06:57:17;;;;;;;1999.90;999.90;;;;;;;1.22;72.00;103312.28;15366164;28;20125;-61
2022/02/27 07:04:49;;;;;;;;;;;;;;;1.68;73.09;103320.66;15413196;28;20051;-61
2022/02/27 07:12:22;;;;;;;1999.90;999.90;;;;;;;1.98;74.04;103317.47;15401917;28;19925;-62
2022/02/27 07:19:54;;;;;;;;;;;;;;;3.07;71.89;103316.78;15399412;28;20054;-62
2022/02/27 07:27:28;;;;;;;114.80;94.82;;;;;;;4.61;67.87;103328.09;15429589;28;19929;-62
2022/02/27 07:35:00;;;;;;;;;;;;;;;5.49;64.64;103346.13;15395951;28;20096;-62
2022/02/27 07:42:34;;;;;;;1999.90;999.90;;;;;;;5.50;65.99;103348.66;15377316;28;19933;-61
2022/02/27 07:50:06;;;;;;;1999.90;999.90;;;;;;;5.71;65.25;103350.03;15411405;28;20106;-61
2022/02/27 07:57:40;;;;;;;1999.90;999.90;;;;;;;6.64;62.90;103351.25;15381662;28;20460;-61
2022/02/27 08:05:12;;;;;;;1999.90;999.90;;;;;;;6.16;63.64;103349.56;15376548;28;20055;-61
2022/02/27 08:12:46;;;;;;;1999.90;999.90;;;;;;;7.00;62.28;103347.34;15399513;28;20081;-62
2022/02/27 08:20:18;;;;;;;1999.90;999.90;;;;;;;6.93;62.53;103350.25;15392698;28;20106;-62
2022/02/27 08:27:52;;;;;;;1999.90;999.90;;;;;;;7.23;63.50;103351.97;15397233;28;20138;-62
2022/02/27 08:35:24;;;;;;;1999.90;999.90;;;;;;;8.74;60.21;103349.31;15382170;28;20051;-61
2022/02/27 08:42:59;;;;;;;1999.90;999.90;;;;;;;9.22;58.62;103365.28;15356561;29;20098;-62
2022/02/27 08:50:31;;;;;;;1999.90;999.90;;;;;;;8.52;60.67;103352.06;15370314;29;20086;-61
2022/02/27 08:58:05;;;;;;;1999.90;999.90;;;;;;;9.42;58.81;103358.28;15370427;29;20050;-62
2022/02/27 09:05:37;;;;;;;1999.90;999.90;;;;;;;9.82;57.20;103358.72;15387409;28;20042;-62
2022/02/27 09:13:10;;;;;;;1999.90;999.90;;;;;;;10.94;55.50;103356.78;15327258;28;20039;-61
2022/02/27 09:20:44;;;;;;;;;;;;;;;10.69;55.54;103367.78;15390096;28;20051;-63
2022/02/27 09:28:19;;;;;;;1999.90;999.90;;;;;;;11.28;53.67;103362.78;15388695;28;19934;-65
2022/02/27 09:35:53;;;;;;;1999.90;999.90;;;;;;;11.39;53.64;103368.41;15412245;28;20102;-63
2022/02/27 09:43:27;;;;;;;1999.90;999.90;;;;;;;11.56;53.58;103375.44;15410177;28;20129;-64
2022/02/27 09:50:59;;;;;;;1999.90;999.90;;;;;;;11.23;54.53;103356.31;15374750;28;20065;-63
2022/02/27 09:58:33;;;;;;;1999.90;999.90;;;;;;;10.99;55.10;103370.75;15349360;29;20066;-64
2022/02/27 10:06:05;;;;;;;;;;;;;;;13.82;48.87;103380.41;15366924;29;20035;-61
2022/02/27 10:13:42;;;;;;;1999.90;999.90;;;;;;;13.82;49.03;103377.59;15377152;28;19954;-62
2022/02/27 10:21:23;;;;;;;1999.90;999.90;;;;;;;12.21;51.72;103372.22;15375937;28;20498;-62
2022/02/27 10:29:08;;;;;;;1999.90;999.90;;;;;;;14.58;46.23;103374.19;15364054;28;20039;-62
2022/02/27 10:36:59;;;;;;;1999.90;999.90;;;;;;;13.61;47.84;103374.09;15367886;28;20051;-60
2022/02/27 10:44:32;;;;;;;1999.90;999.90;;;;;;;15.24;44.67;103372.59;15365647;28;20130;-62
2022/02/27 10:52:14;;;;;;;;;;;;;;;14.32;48.42;103367.94;15368625;28;20047;-63
2022/02/27 10:59:48;;;;;;;1999.90;999.90;;;;;;;15.00;46.01;103361.34;15382454;28;19929;-62
2022/02/27 11:07:20;;;;;;;1999.90;999.90;;;;;;;16.87;42.05;103356.75;15418735;28;20405;-63
2022/02/27 11:14:55;;;;;;;1999.90;999.90;;;;;;;17.77;41.61;103357.09;15368418;28;20109;-64
2022/02/27 11:22:27;;;;;;;1999.90;999.90;;;;;;;19.49;36.44;103343.03;15392031;28;20428;-64
2022/02/27 11:30:01;;;;;;;1999.90;999.90;;;;;;;18.11;37.80;103339.56;15375127;28;20086;-63
2022/02/27 11:37:49;;;;;;;1999.90;999.90;;;;;;;16.51;40.98;103334.03;15355144;28;20051;-64
2022/02/27 11:45:58;;;;;;;1999.90;999.90;;;;;;;17.34;39.90;103326.41;15358124;28;20579;-64
2022/02/27 11:53:48;;;;;;;1999.90;999.90;;;;;;;18.25;37.97;103317.75;15378687;28;20490;-63
2022/02/27 12:01:36;;;;;;;1999.90;999.90;;;;;;;17.57;39.70;103322.50;15387255;28;20464;-64
2022/02/27 12:09:13;;;;;;;1999.90;999.90;;;;;;;17.29;40.01;103318.88;15369870;28;20574;-64
2022/02/27 12:16:48;;;;;;;1999.90;999.90;;;;;;;15.72;43.63;103307.78;15371791;29;20098;-61
2022/02/27 12:24:27;;;;;;;1999.90;999.90;;;;;;;15.82;43.88;103314.06;15371878;29;20055;-64
2022/02/27 12:32:14;;;;;;;1999.90;999.90;;;;;;;15.80;42.52;103321.16;15354572;28;20047;-61
2022/02/27 12:39:48;;;;;;;1999.90;999.90;;;;;;;14.86;44.59;103309.78;15364366;28;20054;-64
2022/02/27 12:47:25;;;;;;;1999.90;999.90;;;;;;;16.02;42.77;103309.25;15377247;28;20047;-63
2022/02/27 12:54:58;;;;;;;1999.90;999.90;;;;;;;17.78;39.66;103313.56;15357759;28;20620;-63
2022/02/27 13:02:31;;;;;;;1999.90;999.90;;;;;;;19.59;35.88;103328.59;15369488;29;20674;-61
2022/02/27 13:10:04;;;;;;;;;;;;;;;20.93;34.41;103323.63;15353384;28;20595;-63
2022/02/27 13:17:37;;;;;;;1999.90;999.90;;;;;;;18.64;36.77;103330.25;15362840;28;19926;-62
2022/02/27 13:25:11;;;;;;;1999.90;999.90;;;;;;;20.27;34.68;103314.69;15345874;29;20043;-63
2022/02/27 13:32:47;;;;;;;1999.90;999.90;;;;;;;18.32;38.14;103309.63;15368945;28;20047;-63
2022/02/27 13:40:22;;;;;;;1999.90;999.90;;;;;;;11.80;50.20;103293.84;15368865;29;20047;-63
2022/02/27 13:47:55;;;;;;;1999.90;999.90;;;;;;;10.07;56.13;103291.13;15364398;28;20399;-63
2022/02/27 13:55:29;;;;;;;1999.90;999.90;;;;;;;9.02;59.46;103277.84;15363793;29;20090;-63
2022/02/27 14:03:10;;;;;;;1999.90;999.90;;;;;;;9.10;59.00;103283.78;15334651;28;20397;-63
2022/02/27 14:10:43;;;;;;;1999.90;999.90;;;;;;;8.18;60.88;103267.78;15350323;28;20515;-65
2022/02/27 14:18:21;;;;;;;1999.90;999.90;;;;;;;8.52;60.64;103262.16;15388449;28;20047;-63
2022/02/27 14:25:53;;;;;;;1999.90;999.90;;;;;;;8.57;60.89;103257.53;15328128;28;20035;-62
2022/02/27 14:33:34;;;;;;;1999.90;999.90;;;;;;;8.65;60.81;103250.66;15398600;28;20623;-63
2022/02/27 14:41:07;;;;;;;1999.90;999.90;;;;;;;7.84;63.00;103249.44;15386107;28;20051;-62
2022/02/27 14:48:40;;;;;;;562.33;304.77;;;;;;;7.19;64.90;103236.91;15357335;28;20043;-63
2022/02/27 14:56:12;;;;;;;;;;;;;;;7.27;64.80;103233.72;15382413;28;20079;-64
2022/02/27 15:03:46;;;;;;;144.65;128.75;;;;;;;7.04;65.86;103233.84;15360207;28;19969;-63
2022/02/27 15:11:20;;;;;;;188.30;168.88;;;;;;;7.26;65.92;103232.03;15383510;28;20039;-63
2022/02/27 15:18:55;;;;;;;168.00;150.38;;;;;;;6.80;66.49;103219.22;15385342;28;20038;-62
2022/02/27 15:26:27;;;;;;;179.57;160.40;;;;;;;6.46;68.13;103232.09;15385917;28;20130;-63
2022/02/27 15:34:01;;;;;;;210.57;189.00;;;;;;;6.60;68.78;103227.97;15404391;28;20066;-63
2022/02/27 15:41:33;;;;;;;;;;;;;;;6.26;69.34;103222.25;15423024;28;20412;-64
2022/02/27 15:49:06;;;;;;;272.48;245.43;;;;;;;5.88;70.46;103227.44;15375535;28;19981;-63
2022/02/27 15:56:38;;;;;;;187.48;165.18;;;;;;;5.69;70.64;103221.16;15420563;28;20034;-65
2022/02/27 16:04:12;;;;;;;143.82;129.07;;;;;;;5.27;72.12;103212.88;15322701;29;20607;-64
2022/02/27 16:11:45;;;;;;;291.45;263.67;;;;;;;5.52;72.36;103223.75;15356134;29;20039;-61
2022/02/27 16:19:18;;;;;;;271.70;246.20;;;;;;;5.63;71.63;103227.66;15371628;29;20047;-62
2022/02/27 16:26:51;;;;;;;282.73;253.50;;;;;;;5.50;72.15;103231.47;15399889;28;20043;-62
2022/02/27 16:34:24;;;;;;;283.02;220.95;;;;;;;4.71;75.67;103225.19;15374911;28;20045;-60
2022/02/27 16:41:56;;;;;;;298.67;264.50;;;;;;;4.88;74.51;103239.22;15354423;29;20054;-61
2022/02/27 16:49:30;;;;;;;233.95;212.98;;;;;;;4.88;75.69;103244.75;15342062;29;20539;-62
2022/02/27 16:57:03;;;;;;;185.27;163.35;;;;;;;4.54;76.12;103235.19;15362091;28;20039;-61
2022/02/27 17:04:37;;;;;;;338.38;310.08;;;;;;;5.28;74.01;103236.72;15368391;28;20047;-61
2022/02/27 17:12:11;;;;;;;322.05;289.60;;;;;;;4.92;74.55;103240.44;15369931;28;20492;-61
2022/02/27 17:19:44;;;;;;;258.30;232.93;;;;;;;4.79;75.46;103237.84;15369463;28;20051;-60
2022/02/27 17:27:16;;;;;;;243.95;183.00;;;;;;;4.34;76.61;103244.56;15370168;28;20095;-61
2022/02/27 17:34:50;;;;;;;347.88;317.67;;;;;;;3.98;79.09;103244.53;15386291;28;20051;-62
2022/02/27 17:42:22;;;;;;;248.27;229.30;;;;;;;3.97;80.04;103249.22;15382768;28;20417;-57
2022/02/27 17:49:56;;;;;;;235.35;214.25;;;;;;;3.99;79.22;103243.47;15368277;29;20081;-63
2022/02/27 17:57:28;;;;;;;328.85;301.00;;;;;;;4.59;77.66;103274.09;15366515;28;20128;-63
2022/02/27 18:05:02;;;;;;;336.30;308.50;;;;;;;4.62;75.30;103259.78;15349285;28;20051;-61
2022/02/27 18:12:34;;;;;;;288.75;264.00;;;;;;;4.15;76.87;103258.59;15349587;29;20055;-60
2022/02/27 18:20:09;;;;;;;245.35;226.13;;;;;;;4.08;77.47;103266.97;15350110;29;20194;-67
2022/02/27 18:27:41;;;;;;;302.65;270.80;;;;;;;3.77;76.60;103262.38;15365156;29;20134;-62
2022/02/27 18:35:15;;;;;;;103.60;59.55;;;;;;;2.97;81.18;103267.59;15364698;29;20045;-63
2022/02/27 18:42:47;;;;;;;;;;;;;;;3.51;79.65;103270.84;15355981;28;20513;-57
2022/02/27 18:50:21;;;;;;;149.90;133.88;;;;;;;2.90;82.09;103269.50;15361679;28;20076;-60
2022/02/27 18:57:53;;;;;;;;;;;;;;;3.13;81.83;103263.47;15410596;28;20066;-57
2022/02/27 19:05:31;;;;;;;195.15;179.57;;;;;;;3.24;81.73;103256.41;15397381;28;19922;-58
2022/02/27 19:13:03;;;;;;;236.55;208.82;;;;;;;2.74;82.24;103246.06;15367338;28;20050;-62
2022/02/27 19:20:36;;;;;;;333.33;297.40;;;;;;;2.76;81.84;103248.59;15359122;28;20527;-62
2022/02/27 19:28:08;;;;;;;;;;;;;;;2.78;81.04;103238.19;15388524;28;20152;-61
2022/02/27 19:35:41;;;;;;;215.55;196.77;;;;;;;2.92;81.80;103236.19;15415508;28;19992;-61
2022/02/27 19:43:14;;;;;;;297.83;272.02;;;;;;;3.25;81.07;103241.53;15411137;28;20101;-61
2022/02/27 19:50:48;;;;;;;1516.25;765.03;;;;;;;2.67;80.93;103230.59;15389561;28;20043;-63
2022/02/27 19:58:19;;;;;;;;;;;;;;;2.97;79.33;103233.63;15398404;28;20051;-60
2022/02/27 20:05:53;;;;;;;191.43;175.38;;;;;;;2.49;82.18;103234.06;15378663;28;19929;-61
2022/02/27 20:13:28;;;;;;;142.43;130.32;;;;;;;2.66;80.97;103224.25;15431260;28;20047;-61
2022/02/27 20:21:05;;;;;;;1999.90;999.90;;;;;;;2.56;80.89;103215.59;15382509;28;20404;-64
2022/02/27 20:28:39;;;;;;;374.52;330.00;;;;;;;2.51;81.27;103213.50;15412949;28;20051;-62
2022/02/27 20:36:13;;;;;;;168.98;153.15;;;;;;;2.92;80.68;103219.63;15399131;28;20416;-59
2022/02/27 20:43:59;;;;;;;129.15;113.85;;;;;;;2.52;82.34;103212.44;15369250;29;20135;-57
2022/02/27 20:51:33;;;;;;;140.55;126.20;;;;;;;2.81;81.33;103204.63;15368224;28;20170;-60
2022/02/27 20:59:05;;;;;;;1514.82;759.20;;;;;;;2.60;81.52;103203.94;15359761;28;20035;-59
2022/02/27 21:06:58;;;;;;;1999.90;999.90;;;;;;;2.44;81.53;103187.88;15342782;28;20051;-59
2022/02/27 21:14:38;;;;;;;1999.90;999.90;;;;;;;2.49;81.64;103188.03;15353945;28;20049;-62
2022/02/27 21:22:12;;;;;;;1999.90;999.90;;;;;;;2.48;81.31;103193.78;15395855;28;20051;-60
2022/02/27 21:29:45;;;;;;;1540.95;774.30;;;;;;;2.13;81.86;103179.50;15368845;28;20082;-62
2022/02/27 21:37:18;;;;;;;1999.90;999.90;;;;;;;2.02;81.84;103192.88;15403800;28;20109;-61
2022/02/27 21:44:50;;;;;;;;;;;;;;;1.89;81.94;103192.94;15392335;28;20579;-59
2022/02/27 21:52:24;;;;;;;1999.90;999.90;;;;;;;1.88;83.16;103193.16;15388958;28;20036;-59
2022/02/27 21:59:56;;;;;;;1999.90;999.90;;;;;;;1.90;83.52;103188.25;15374747;28;20050;-60
2022/02/27 22:07:30;;;;;;;1999.90;999.90;;;;;;;2.16;82.82;103187.34;15418894;23;20451;-56
2022/02/27 22:15:03;;;;;;;;;;;;;;;2.82;81.07;103187.91;15457051;28;20468;-58
2022/02/27 22:22:37;;;;;;;1999.90;999.90;;;;;;;2.22;80.89;103189.25;15417473;28;19928;-57
2022/02/27 22:30:11;;;;;;;1999.90;999.90;;;;;;;1.80;82.17;103185.09;15434675;28;20490;-58
2022/02/27 22:37:44;;;;;;;;;;;;;;;2.05;82.04;103202.63;15449813;28;20435;-57
2022/02/27 22:45:16;;;;;;;1999.90;999.90;;;;;;;1.92;82.95;103195.25;15453821;28;20016;-57
2022/02/27 22:52:50;;;;;;;1999.90;999.90;;;;;;;2.38;81.79;103201.66;15404122;28;20585;-57
2022/02/27 23:00:40;;;;;;;;;;;;;;;2.56;81.48;103197.13;15435417;28;20087;-57
2022/02/27 23:08:29;;;;;;;1999.90;999.90;;;;;;;2.51;82.01;103196.13;15455978;28;20054;-58
2022/02/27 23:16:02;;;;;;;1999.90;999.90;;;;;;;2.85;80.34;103209.50;15436089;28;20539;-56
2022/02/27 23:23:38;;;;;;;1999.90;999.90;;;;;;;2.43;80.13;103216.50;15451284;28;20476;-57
2022/02/27 23:31:11;;;;;;;1999.90;999.90;;;;;;;2.21;81.40;103226.13;15474642;28;20108;-56
2022/02/27 23:38:44;;;;;;;1999.90;999.90;;;;;;;2.24;80.92;103226.53;15435819;28;20046;-58
2022/02/27 23:46:17;;;;;;;1999.90;999.90;;;;;;;2.25;80.07;103230.13;15454067;28;20371;-55
2022/02/27 23:53:50;;;;;;;1999.90;999.90;;;;;;;2.13;81.92;103226.34;15446548;28;20043;-58
